Time;durP1;ratioP1;P1;durP2;ratioP2;P2;SDS_P1;SDS_P2;PMS_P1;PMS_P2;Temp;Humidity;BMP_temperature;BMP_pressure;BME280_temperature;BME280_humidity;BME280_pressure;Samples;Min_cycle;Max_cycle;Signal;HPM_P1;HPM_P2
2023/01/16 00:00:51;;;;;;;1.40;1.07;;;4.50;98.00;;;;;;5054188;28;20459;-66
2023/01/16 00:03:19;;;;;;;1.30;1.30;;;4.60;98.00;;;;;;5054073;28;20460;-66
2023/01/16 00:05:46;;;;;;;1.10;1.00;;;4.50;98.00;;;;;;5052676;28;20900;-66
2023/01/16 00:08:13;;;;;;;1.20;1.00;;;4.50;98.00;;;;;;5054217;28;20463;-66
2023/01/16 00:10:42;;;;;;;3.00;1.00;;;4.50;98.00;;;;;;5054059;28;20456;-66
2023/01/16 00:13:11;;;;;;;1.43;1.20;;;4.50;98.00;;;;;;5054078;28;21109;-66
2023/01/16 00:15:38;;;;;;;1.30;1.20;;;4.40;98.00;;;;;;5054108;28;20514;-66
2023/01/16 00:18:05;;;;;;;1.50;1.30;;;4.40;98.00;;;;;;5053834;28;20468;-66
2023/01/16 00:20:33;;;;;;;1.53;1.10;;;4.40;98.00;;;;;;5053869;28;20458;-66
2023/01/16 00:23:00;;;;;;;1.40;1.10;;;4.50;98.00;;;;;;5053786;28;20505;-66
2023/01/16 00:25:27;;;;;;;1.30;1.00;;;4.60;98.00;;;;;;5053919;28;20639;-66
2023/01/16 00:27:55;;;;;;;1.73;1.20;;;4.60;98.00;;;;;;5054900;28;20485;-66
2023/01/16 00:30:24;;;;;;;1.10;0.90;;;4.60;98.00;;;;;;5052344;28;21027;-66
2023/01/16 00:32:51;;;;;;;1.10;1.00;;;4.70;98.00;;;;;;5053334;28;20449;-66
2023/01/16 00:35:19;;;;;;;1.20;1.03;;;4.70;98.00;;;;;;5052928;28;20453;-66
2023/01/16 00:37:46;;;;;;;1.10;0.90;;;4.70;98.00;;;;;;5053479;28;20457;-66
2023/01/16 00:40:13;;;;;;;1.30;1.30;;;4.70;98.00;;;;;;5053367;28;20978;-66
2023/01/16 00:42:41;;;;;;;1.30;1.07;;;4.70;98.00;;;;;;5053501;28;20855;-66
2023/01/16 00:45:11;;;;;;;1.40;1.20;;;4.70;98.00;;;;;;5053172;28;20468;-66
2023/01/16 00:47:38;;;;;;;2.50;1.30;;;4.80;98.00;;;;;;5053188;28;20488;-66
2023/01/16 00:50:06;;;;;;;1.30;1.10;;;4.80;98.00;;;;;;5053117;28;20462;-66
2023/01/16 00:52:34;;;;;;;1.30;1.00;;;4.80;98.00;;;;;;5053196;28;20465;-66
2023/01/16 00:55:01;;;;;;;1.73;1.27;;;4.70;98.00;;;;;;5053279;28;20735;-66
2023/01/16 00:57:28;;;;;;;1.20;1.00;;;4.70;98.00;;;;;;5051962;28;20494;-66
2023/01/16 01:00:03;;;;;;;1.30;1.07;;;4.70;98.00;;;;;;5052855;28;20515;-66
2023/01/16 01:02:31;;;;;;;1.10;1.00;;;4.70;98.00;;;;;;5053110;28;20460;-66
2023/01/16 01:04:58;;;;;;;1.10;1.00;;;4.60;98.00;;;;;;5053091;28;20464;-66
2023/01/16 01:07:25;;;;;;;1.10;1.00;;;4.60;98.00;;;;;;5053145;28;20483;-66
2023/01/16 01:09:52;;;;;;;1.10;0.93;;;4.60;98.00;;;;;;5053579;28;20469;-66
2023/01/16 01:12:20;;;;;;;2.07;1.10;;;4.60;98.00;;;;;;5051925;28;20502;-66
2023/01/16 01:14:47;;;;;;;1.20;1.00;;;4.60;98.00;;;;;;5052939;28;21153;-66
2023/01/16 01:17:14;;;;;;;1.27;1.03;;;4.70;98.00;;;;;;5052533;28;20544;-67
2023/01/16 01:19:50;;;;;;;1.73;1.40;;;4.80;98.00;;;;;;5052705;28;20460;-66
2023/01/16 01:22:17;;;;;;;1.40;1.10;;;4.70;98.00;;;;;;5052756;28;20455;-66
2023/01/16 01:24:47;;;;;;;1.40;1.23;;;4.70;98.00;;;;;;5052571;28;20463;-66
2023/01/16 01:27:15;;;;;;;1.57;1.23;;;4.70;98.00;;;;;;5052568;28;20549;-66
2023/01/16 01:29:42;;;;;;;1.40;1.10;;;4.70;98.00;;;;;;5052311;28;20455;-66
2023/01/16 01:32:09;;;;;;;1.50;1.17;;;4.70;98.00;;;;;;5052411;28;20453;-66
2023/01/16 01:34:36;;;;;;;2.03;1.30;;;4.70;98.00;;;;;;5052332;28;20462;-66
2023/01/16 01:37:06;;;;;;;1.10;1.00;;;4.70;98.00;;;;;;5034730;28;20466;-66
2023/01/16 01:39:34;;;;;;;1.10;1.00;;;4.60;98.00;;;;;;5052240;28;20475;-66
2023/01/16 01:44:52;;;;;;;1.30;1.00;;;4.60;98.00;;;;;;5051719;28;20451;-66
2023/01/16 01:47:24;;;;;;;1.20;1.07;;;4.60;98.00;;;;;;5050812;28;20484;-66
2023/01/16 01:49:52;;;;;;;1.83;1.30;;;4.50;98.00;;;;;;5051990;28;20484;-66
2023/01/16 01:52:22;;;;;;;1.10;1.00;;;4.50;98.00;;;;;;5052112;28;20461;-66
2023/01/16 01:54:54;;;;;;;1.43;1.20;;;4.40;98.00;;;;;;5050679;28;20461;-66
2023/01/16 01:57:26;;;;;;;1.10;0.93;;;4.30;98.00;;;;;;5051956;28;20865;-66
2023/01/16 01:59:59;;;;;;;2.33;1.17;;;4.30;98.00;;;;;;5052255;28;20514;-66
2023/01/16 02:02:32;;;;;;;1.50;1.43;;;4.30;98.00;;;;;;5051866;28;20757;-66
2023/01/16 02:05:02;;;;;;;1.10;0.97;;;4.30;98.00;;;;;;5051494;28;20533;-66
2023/01/16 02:07:33;;;;;;;1.20;1.00;;;4.20;98.00;;;;;;5051686;28;21063;-66
2023/01/16 02:10:10;;;;;;;1.20;1.00;;;4.20;98.00;;;;;;5051952;28;20455;-66
2023/01/16 02:12:38;;;;;;;1.20;1.03;;;4.20;98.00;;;;;;5051944;28;20455;-66
2023/01/16 02:15:06;;;;;;;1.73;1.30;;;4.10;98.00;;;;;;5051638;28;20460;-66
2023/01/16 02:20:20;;;;;;;1.70;1.30;;;4.10;98.00;;;;;;5051617;28;20445;-66
2023/01/16 02:23:15;;;;;;;1.10;1.00;;;4.00;98.00;;;;;;5051561;28;20523;-66
2023/01/16 02:26:17;;;;;;;1.47;1.00;;;3.90;98.00;;;;;;5051299;28;20479;-66
2023/01/16 02:29:20;;;;;;;1.20;1.00;;;3.90;98.00;;;;;;5051313;28;20497;-66
2023/01/16 02:31:56;;;;;;;1.40;1.20;;;3.90;98.00;;;;;;5028469;28;20455;-66
2023/01/16 02:34:44;;;;;;;1.10;0.90;;;3.90;98.00;;;;;;5051197;28;20463;-66
2023/01/16 02:37:21;;;;;;;1.20;1.10;;;3.80;98.00;;;;;;5051275;28;20455;-66
2023/01/16 02:39:58;;;;;;;1.10;0.90;;;3.90;98.00;;;;;;5051142;28;20480;-66
2023/01/16 02:42:33;;;;;;;1.37;1.17;;;3.90;98.00;;;;;;5051148;28;20459;-66
2023/01/16 02:45:07;;;;;;;1.23;1.00;;;3.80;98.00;;;;;;5051057;28;20515;-66
2023/01/16 02:47:44;;;;;;;1.30;1.00;;;3.80;98.00;;;;;;5049944;28;20660;-66
2023/01/16 02:50:17;;;;;;;1.20;1.10;;;3.60;98.00;;;;;;5051104;28;20525;-66
2023/01/16 02:52:51;;;;;;;1.90;1.37;;;3.60;98.00;;;;;;5051064;28;20516;-66
2023/01/16 02:55:25;;;;;;;1.60;1.10;;;3.40;98.00;;;;;;5049760;28;20451;-66
2023/01/16 02:57:57;;;;;;;2.93;1.33;;;3.40;98.00;;;;;;5050240;28;20820;-66
2023/01/16 03:00:24;;;;;;;1.20;1.03;;;3.40;98.00;;;;;;5050854;28;20477;-66
2023/01/16 03:02:53;;;;;;;1.20;1.00;;;3.30;98.00;;;;;;5049896;28;20462;-66
2023/01/16 03:05:21;;;;;;;1.30;1.10;;;3.20;98.00;;;;;;5051025;28;20456;-66
2023/01/16 03:08:13;;;;;;;2.00;1.10;;;3.30;98.00;;;;;;5050978;28;20498;-66
2023/01/16 03:11:09;;;;;;;1.20;1.20;;;3.30;98.00;;;;;;5046239;28;20984;-66
2023/01/16 03:13:58;;;;;;;1.40;1.10;;;3.20;98.00;;;;;;5050941;28;20459;-66
2023/01/16 03:16:34;;;;;;;3.10;1.20;;;3.00;98.00;;;;;;5049160;28;20463;-66
2023/01/16 03:19:13;;;;;;;1.10;1.00;;;2.90;98.00;;;;;;5050757;28;20468;-66
2023/01/16 03:21:48;;;;;;;1.67;1.10;;;2.90;98.00;;;;;;5050798;28;20598;-66
2023/01/16 03:24:26;;;;;;;1.13;1.00;;;2.90;98.00;;;;;;5050687;28;20458;-66
2023/01/16 03:27:00;;;;;;;1.53;1.27;;;2.80;98.00;;;;;;5050677;28;20481;-66
2023/01/16 03:29:34;;;;;;;2.97;1.47;;;2.90;98.00;;;;;;5050655;28;20459;-66
2023/01/16 03:32:08;;;;;;;1.20;1.03;;;3.00;98.00;;;;;;5050807;28;20814;-66
2023/01/16 03:34:42;;;;;;;1.13;1.00;;;3.00;98.00;;;;;;5050668;28;20461;-66
2023/01/16 03:37:13;;;;;;;1.50;1.20;;;3.00;98.00;;;;;;5050624;28;20466;-66
2023/01/16 03:39:46;;;;;;;2.80;1.07;;;3.00;98.00;;;;;;5050653;28;20459;-66
2023/01/16 03:42:16;;;;;;;1.83;1.07;;;2.90;98.00;;;;;;5050520;28;20548;-66
2023/01/16 03:44:51;;;;;;;1.20;1.00;;;2.90;98.00;;;;;;5050672;28;20958;-66
2023/01/16 03:47:23;;;;;;;1.33;1.00;;;2.90;98.00;;;;;;5050431;28;20481;-65
2023/01/16 03:49:57;;;;;;;2.00;1.40;;;2.80;98.00;;;;;;5050687;28;20465;-66
2023/01/16 03:52:31;;;;;;;1.20;1.07;;;2.60;98.00;;;;;;5050454;28;20944;-66
2023/01/16 03:55:07;;;;;;;1.50;1.13;;;2.60;98.00;;;;;;5050456;28;20478;-66
2023/01/16 03:57:38;;;;;;;1.20;1.10;;;2.40;98.00;;;;;;5049233;28;20461;-66
2023/01/16 04:00:10;;;;;;;1.10;1.00;;;2.50;98.00;;;;;;5049237;28;20465;-66
2023/01/16 04:02:44;;;;;;;2.13;1.00;;;2.40;98.00;;;;;;5050447;28;20486;-66
2023/01/16 04:05:18;;;;;;;1.10;1.00;;;2.30;98.00;;;;;;5050423;28;20457;-66
2023/01/16 04:07:51;;;;;;;1.20;1.10;;;2.30;98.00;;;;;;5051056;28;20486;-66
2023/01/16 04:10:22;;;;;;;1.10;1.00;;;2.30;98.00;;;;;;5052951;28;20541;-66
2023/01/16 04:12:55;;;;;;;2.03;1.10;;;2.30;98.00;;;;;;5054094;28;20462;-66
2023/01/16 04:15:25;;;;;;;1.10;1.00;;;2.20;98.00;;;;;;5053888;28;20463;-66
2023/01/16 04:17:54;;;;;;;4.40;1.07;;;2.20;98.00;;;;;;5053968;28;20490;-66
2023/01/16 04:20:23;;;;;;;1.20;1.07;;;2.10;98.00;;;;;;5053720;28;20619;-66
2023/01/16 04:22:51;;;;;;;2.43;1.27;;;2.10;98.00;;;;;;5053727;28;20458;-66
2023/01/16 04:25:20;;;;;;;1.20;1.10;;;2.10;98.00;;;;;;5052327;28;20451;-66
2023/01/16 04:27:47;;;;;;;1.40;1.40;;;2.00;98.00;;;;;;5053500;28;20490;-66
2023/01/16 04:30:15;;;;;;;1.50;1.20;;;2.00;98.00;;;;;;5052288;28;20470;-66
2023/01/16 04:32:42;;;;;;;1.10;1.00;;;2.00;98.00;;;;;;5053479;28;20545;-66
2023/01/16 04:35:13;;;;;;;1.60;1.30;;;2.00;98.00;;;;;;5052253;28;20464;-66
2023/01/16 04:37:41;;;;;;;1.83;1.10;;;1.80;98.00;;;;;;5052222;28;20474;-66
2023/01/16 04:40:14;;;;;;;1.13;1.07;;;1.90;98.00;;;;;;5053312;28;20457;-66
2023/01/16 04:42:41;;;;;;;1.20;1.07;;;1.80;98.00;;;;;;5053366;28;20457;-66
2023/01/16 04:45:10;;;;;;;2.03;1.27;;;1.80;98.00;;;;;;5053368;28;20827;-66
2023/01/16 04:47:37;;;;;;;1.20;1.00;;;1.80;98.00;;;;;;5053170;28;20486;-66
2023/01/16 04:50:04;;;;;;;1.10;0.90;;;1.70;98.00;;;;;;5053208;28;20459;-66
2023/01/16 04:52:31;;;;;;;1.10;0.90;;;1.50;98.00;;;;;;5053042;28;20467;-66
2023/01/16 04:55:00;;;;;;;1.10;1.00;;;1.50;98.00;;;;;;5051963;28;20457;-66
2023/01/16 04:57:27;;;;;;;1.20;1.00;;;1.60;98.00;;;;;;5052932;28;20458;-66
2023/01/16 04:59:54;;;;;;;1.97;1.30;;;1.60;98.00;;;;;;5053420;28;20886;-66
2023/01/16 05:02:30;;;;;;;1.30;1.23;;;1.60;98.00;;;;;;5052980;28;20457;-66
2023/01/16 05:04:57;;;;;;;1.40;1.20;;;1.60;98.00;;;;;;5051875;28;20545;-67
2023/01/16 05:07:26;;;;;;;1.10;1.00;;;1.60;98.00;;;;;;5052990;28;20461;-66
2023/01/16 05:09:53;;;;;;;1.20;1.00;;;1.70;98.00;;;;;;5053365;28;20520;-66
2023/01/16 05:12:22;;;;;;;1.40;1.00;;;1.50;98.00;;;;;;5051729;28;20450;-66
2023/01/16 05:14:49;;;;;;;1.10;0.90;;;1.50;98.00;;;;;;5052854;28;20970;-66
2023/01/16 05:17:16;;;;;;;1.20;1.00;;;1.60;98.00;;;;;;5052637;28;20850;-66
2023/01/16 05:19:44;;;;;;;3.50;1.77;;;1.60;98.00;;;;;;5052000;28;20454;-66
2023/01/16 05:22:11;;;;;;;1.10;1.00;;;1.50;98.00;;;;;;5052798;28;20453;-66
2023/01/16 05:24:38;;;;;;;1.50;1.20;;;1.50;98.00;;;;;;5052961;28;20993;-66
2023/01/16 05:27:05;;;;;;;1.10;1.00;;;1.50;98.00;;;;;;5052600;28;20462;-66
2023/01/16 05:29:34;;;;;;;1.10;1.07;;;1.50;98.00;;;;;;5052577;28;20578;-65
2023/01/16 05:32:01;;;;;;;1.10;1.00;;;1.60;98.00;;;;;;5053705;28;20450;-66
2023/01/16 05:34:28;;;;;;;1.10;0.90;;;1.70;98.00;;;;;;5052773;28;20465;-65
2023/01/16 05:36:55;;;;;;;1.10;1.00;;;1.80;98.00;;;;;;5053595;28;20461;-66
2023/01/16 05:39:22;;;;;;;1.10;1.00;;;1.80;98.00;;;;;;5052419;28;20465;-66
2023/01/16 05:41:49;;;;;;;1.20;1.10;;;1.90;98.00;;;;;;5052191;28;20853;-66
2023/01/16 05:44:16;;;;;;;1.70;1.37;;;1.90;98.00;;;;;;5052472;28;20451;-66
2023/01/16 05:46:44;;;;;;;1.10;0.90;;;2.00;98.00;;;;;;5052266;28;20997;-66
2023/01/16 05:49:11;;;;;;;1.10;1.00;;;2.10;98.00;;;;;;5052376;28;20482;-65
2023/01/16 05:51:38;;;;;;;1.97;1.13;;;2.00;98.00;;;;;;5051894;28;20446;-66
2023/01/16 05:54:06;;;;;;;1.10;1.00;;;1.80;98.00;;;;;;5052110;28;20463;-65
2023/01/16 05:56:33;;;;;;;1.10;1.00;;;1.70;98.00;;;;;;5050925;28;20450;-65
2023/01/16 05:59:01;;;;;;;1.23;1.00;;;1.70;98.00;;;;;;5052138;28;20466;-66
2023/01/16 06:01:28;;;;;;;1.10;1.10;;;1.60;98.00;;;;;;5052110;28;20520;-66
2023/01/16 06:03:57;;;;;;;1.77;1.30;;;1.50;98.00;;;;;;5052130;28;20472;-65
2023/01/16 06:06:24;;;;;;;4.40;1.40;;;1.50;98.00;;;;;;5051918;28;20523;-65
2023/01/16 06:08:51;;;;;;;2.77;1.20;;;1.40;98.00;;;;;;5052048;28;20489;-65
2023/01/16 06:11:20;;;;;;;1.10;1.00;;;1.50;98.00;;;;;;5051908;28;20985;-65
2023/01/16 06:13:48;;;;;;;1.20;1.10;;;1.50;98.00;;;;;;5052123;28;20490;-65
2023/01/16 06:16:15;;;;;;;1.10;1.00;;;1.50;98.00;;;;;;5051669;28;20889;-65
2023/01/16 06:18:42;;;;;;;1.57;1.20;;;1.70;98.00;;;;;;5051171;28;20473;-67
2023/01/16 06:21:10;;;;;;;1.10;1.10;;;1.80;98.00;;;;;;5050400;28;20457;-68
2023/01/16 06:23:38;;;;;;;1.60;1.30;;;1.80;98.00;;;;;;5051467;28;20451;-68
2023/01/16 06:26:09;;;;;;;4.70;1.50;;;1.70;98.00;;;;;;5050432;28;20453;-67
2023/01/16 06:28:36;;;;;;;1.10;1.00;;;1.80;98.00;;;;;;5051459;28;20845;-67
2023/01/16 06:31:04;;;;;;;1.20;1.20;;;1.80;98.00;;;;;;5051282;28;20456;-67
2023/01/16 06:33:31;;;;;;;1.30;1.30;;;1.60;98.00;;;;;;5050193;28;20461;-67
2023/01/16 06:35:58;;;;;;;1.20;1.10;;;1.50;98.00;;;;;;5051257;28;20465;-67
2023/01/16 06:38:27;;;;;;;2.20;1.43;;;1.50;98.00;;;;;;5051239;28;20519;-67
2023/01/16 06:40:55;;;;;;;2.07;1.80;;;1.50;98.00;;;;;;5049915;28;20457;-67
2023/01/16 06:43:23;;;;;;;1.30;1.23;;;1.30;98.00;;;;;;5051402;28;20476;-67
2023/01/16 06:45:51;;;;;;;2.63;1.90;;;1.40;98.00;;;;;;5051146;28;20457;-67
2023/01/16 06:48:18;;;;;;;3.73;1.73;;;1.40;98.00;;;;;;5051123;28;20485;-67
2023/01/16 06:50:45;;;;;;;2.27;1.27;;;1.50;98.00;;;;;;5049918;28;20865;-67
2023/01/16 06:53:12;;;;;;;1.20;1.10;;;1.40;98.00;;;;;;5051557;28;20450;-68
2023/01/16 06:55:42;;;;;;;1.57;1.30;;;1.40;98.00;;;;;;5049726;28;20457;-65
2023/01/16 06:58:09;;;;;;;1.10;1.03;;;1.40;98.00;;;;;;5049924;28;20458;-66
2023/01/16 07:00:37;;;;;;;1.93;1.10;;;1.40;98.00;;;;;;5051004;28;20453;-63
2023/01/16 07:03:04;;;;;;;3.00;1.43;;;1.50;98.00;;;;;;5051283;28;20457;-64
2023/01/16 07:05:32;;;;;;;1.10;1.10;;;1.50;98.00;;;;;;5050559;28;20467;-62
2023/01/16 07:07:59;;;;;;;1.30;1.20;;;1.70;98.00;;;;;;5051187;28;20449;-63
2023/01/16 07:10:26;;;;;;;1.77;1.57;;;1.70;98.00;;;;;;5051358;28;20458;-62
2023/01/16 07:12:55;;;;;;;1.20;1.10;;;1.70;98.00;;;;;;5049940;28;20461;-63
2023/01/16 07:23:46;;;;;;;1.10;1.00;;;1.70;98.00;;;;;;5051025;28;20472;-63
2023/01/16 07:26:17;;;;;;;1.10;0.90;;;1.80;98.00;;;;;;5049713;28;20547;-63
2023/01/16 07:28:47;;;;;;;1.40;1.20;;;1.70;98.00;;;;;;5050863;28;21167;-62
2023/01/16 07:31:15;;;;;;;1.33;1.20;;;1.80;98.00;;;;;;5049733;28;20458;-65
2023/01/16 07:33:42;;;;;;;1.20;1.20;;;1.80;98.00;;;;;;5050682;28;20462;-65
2023/01/16 07:36:09;;;;;;;2.30;1.43;;;1.90;98.00;;;;;;5051016;28;20446;-63
2023/01/16 07:38:36;;;;;;;1.67;1.10;;;2.00;98.00;;;;;;5050782;28;20462;-63
2023/01/16 07:41:05;;;;;;;1.20;1.10;;;2.00;98.00;;;;;;5050722;28;20469;-63
2023/01/16 07:43:32;;;;;;;2.50;1.37;;;2.10;98.00;;;;;;5052356;28;20454;-63
2023/01/16 07:46:04;;;;;;;1.40;1.20;;;2.30;98.00;;;;;;5054735;28;20461;-64
2023/01/16 07:48:31;;;;;;;1.67;1.30;;;2.30;98.00;;;;;;5054607;28;20493;-63
2023/01/16 07:50:59;;;;;;;1.37;1.37;;;2.40;98.00;;;;;;5054289;28;20462;-65
2023/01/16 07:53:29;;;;;;;1.83;1.30;;;2.40;98.00;;;;;;5054509;28;20462;-65
2023/01/16 07:55:58;;;;;;;1.97;1.33;;;2.40;98.00;;;;;;5054349;28;20882;-63
2023/01/16 07:58:25;;;;;;;3.63;1.70;;;2.40;98.00;;;;;;5054252;28;20454;-63
2023/01/16 08:00:54;;;;;;;1.87;1.37;;;2.50;98.00;;;;;;5054181;28;20516;-64
2023/01/16 08:03:23;;;;;;;2.50;1.77;;;2.50;98.00;;;;;;5054271;28;20537;-63
2023/01/16 08:05:51;;;;;;;1.40;1.30;;;2.40;98.00;;;;;;5054478;28;20462;-63
2023/01/16 08:08:21;;;;;;;1.20;1.10;;;2.50;98.00;;;;;;5054391;28;20507;-63
2023/01/16 08:10:48;;;;;;;2.50;1.30;;;2.50;98.00;;;;;;5054272;28;20868;-64
2023/01/16 08:13:15;;;;;;;1.27;1.10;;;2.50;98.00;;;;;;5054233;28;20463;-63
2023/01/16 08:15:43;;;;;;;1.50;1.37;;;2.40;98.00;;;;;;5052718;28;20454;-63
2023/01/16 08:18:12;;;;;;;1.60;1.20;;;2.50;98.00;;;;;;5050334;28;20544;-64
2023/01/16 08:20:42;;;;;;;1.67;1.33;;;2.50;98.00;;;;;;5034262;28;20995;-64
2023/01/16 08:23:09;;;;;;;1.17;1.10;;;2.50;98.00;;;;;;5034290;28;20801;-63
2023/01/16 08:25:36;;;;;;;1.77;1.40;;;2.60;98.00;;;;;;5034380;28;20514;-64
2023/01/16 08:28:04;;;;;;;1.20;1.20;;;2.70;98.00;;;;;;5034314;28;20481;-63
2023/01/16 08:30:33;;;;;;;1.40;1.20;;;2.80;98.00;;;;;;5033556;28;20484;-64
2023/01/16 08:33:00;;;;;;;1.77;1.30;;;2.90;98.00;;;;;;5034083;28;20470;-63
2023/01/16 08:35:29;;;;;;;2.43;1.37;;;3.00;98.00;;;;;;5034205;28;20490;-64
2023/01/16 08:37:58;;;;;;;2.57;1.90;;;3.00;98.00;;;;;;5016293;28;20542;-64
2023/01/16 08:40:25;;;;;;;2.07;1.40;;;2.90;98.00;;;;;;5034082;28;20463;-64
2023/01/16 08:51:25;;;;;;;1.40;1.17;;;3.10;98.00;;;;;;5054203;28;20474;-64
2023/01/16 08:53:56;;;;;;;1.40;1.13;;;3.20;98.00;;;;;;5053643;28;20458;-64
2023/01/16 08:56:24;;;;;;;1.20;1.17;;;3.40;98.00;;;;;;5053502;28;20558;-63
2023/01/16 08:58:51;;;;;;;1.30;1.20;;;3.50;98.00;;;;;;5053891;28;20459;-63
2023/01/16 09:01:19;;;;;;;1.10;1.03;;;3.70;98.00;;;;;;5053653;28;20458;-64
2023/01/16 09:03:46;;;;;;;1.73;1.00;;;3.90;98.00;;;;;;5053670;28;20450;-63
2023/01/16 09:06:13;;;;;;;1.73;1.23;;;4.00;98.00;;;;;;5053619;28;20714;-64
2023/01/16 09:08:42;;;;;;;1.10;1.00;;;4.20;98.00;;;;;;5053529;28;20460;-63
2023/01/16 09:14:01;;;;;;;2.53;1.30;;;4.40;98.00;;;;;;5053942;28;20879;-64
2023/01/16 09:16:28;;;;;;;4.40;1.30;;;4.40;98.00;;;;;;5052494;28;20943;-64
2023/01/16 09:18:56;;;;;;;1.20;1.00;;;4.50;98.00;;;;;;5048068;28;20474;-64
2023/01/16 09:21:24;;;;;;;1.10;1.00;;;4.60;98.00;;;;;;5034094;28;21013;-64
2023/01/16 09:23:51;;;;;;;1.10;0.90;;;4.70;98.00;;;;;;5052547;28;20516;-64
2023/01/16 09:26:20;;;;;;;1.10;1.00;;;4.70;98.00;;;;;;5052591;28;20460;-64
2023/01/16 09:28:47;;;;;;;1.20;1.00;;;4.80;98.00;;;;;;5052257;28;20467;-63
2023/01/16 09:31:14;;;;;;;1.10;1.00;;;4.90;98.00;;;;;;5052127;28;20464;-64
2023/01/16 09:33:41;;;;;;;1.60;1.27;;;4.90;98.00;;;;;;5052171;28;20456;-64
2023/01/16 09:36:10;;;;;;;1.13;1.00;;;5.00;98.00;;;;;;5052211;28;20970;-64
2023/01/16 09:38:37;;;;;;;1.27;1.00;;;5.10;98.00;;;;;;5034606;28;20457;-64
2023/01/16 09:41:04;;;;;;;1.20;1.00;;;5.30;98.00;;;;;;5052120;28;20457;-64
2023/01/16 09:43:49;;;;;;;1.80;1.20;;;5.20;98.00;;;;;;5052068;28;20464;-64
2023/01/16 09:46:18;;;;;;;1.10;0.90;;;5.20;98.00;;;;;;5051246;28;20547;-64
2023/01/16 09:48:51;;;;;;;1.10;1.00;;;5.20;98.00;;;;;;5052186;28;20461;-64
2023/01/16 09:51:23;;;;;;;1.20;1.00;;;5.20;98.00;;;;;;5051937;28;20944;-64
2023/01/16 09:59:37;;;;;;;1.20;1.00;;;5.20;98.00;;;;;;5051824;28;20869;-63
2023/01/16 10:02:27;;;;;;;3.23;1.30;;;5.20;98.00;;;;;;5051700;28;20956;-64
2023/01/16 10:04:56;;;;;;;1.43;1.27;;;5.30;98.00;;;;;;5050920;28;20459;-64
2023/01/16 10:07:46;;;;;;;1.10;0.90;;;5.30;98.00;;;;;;5051802;28;20871;-64
2023/01/16 10:10:39;;;;;;;1.50;1.20;;;5.40;98.00;;;;;;5051976;28;20555;-63
2023/01/16 10:13:32;;;;;;;1.20;0.97;;;5.40;98.00;;;;;;5051856;28;20455;-64
2023/01/16 10:16:12;;;;;;;1.30;1.00;;;5.50;98.00;;;;;;5051677;28;20461;-64
2023/01/16 10:18:51;;;;;;;1.20;1.00;;;5.60;98.00;;;;;;5051510;28;20470;-63
2023/01/16 10:21:36;;;;;;;1.20;1.10;;;5.70;98.00;;;;;;5050315;28;20464;-63
2023/01/16 10:24:12;;;;;;;1.60;1.10;;;5.80;98.00;;;;;;5051818;28;20467;-63
2023/01/16 10:26:49;;;;;;;1.10;0.90;;;5.90;98.00;;;;;;5050911;28;20475;-64
2023/01/16 10:29:24;;;;;;;1.13;0.97;;;6.00;98.00;;;;;;5051986;28;20450;-64
2023/01/16 10:31:59;;;;;;;1.60;1.10;;;6.10;98.00;;;;;;5051890;28;20548;-64
2023/01/16 10:34:33;;;;;;;1.83;1.20;;;6.10;98.00;;;;;;5052069;28;20829;-64
2023/01/16 10:37:01;;;;;;;1.10;1.00;;;6.20;98.00;;;;;;5051786;28;20476;-64
2023/01/16 10:39:33;;;;;;;1.30;1.20;;;6.10;98.00;;;;;;5051973;28;20456;-63
2023/01/16 10:50:51;;;;;;;1.20;1.00;;;6.00;98.00;;;;;;5051858;28;20833;-63
2023/01/16 10:53:18;;;;;;;1.10;1.00;;;6.00;98.00;;;;;;5051856;28;20455;-64
2023/01/16 10:55:51;;;;;;;1.20;1.10;;;5.90;98.00;;;;;;5051883;28;20935;-64
2023/01/16 10:58:25;;;;;;;1.73;1.07;;;5.90;98.00;;;;;;5051977;28;20456;-64
2023/01/16 11:00:56;;;;;;;1.10;1.00;;;5.90;98.00;;;;;;5051641;28;20511;-64
2023/01/16 11:03:34;;;;;;;1.10;1.03;;;6.00;98.00;;;;;;5051717;28;20458;-64
2023/01/16 11:06:11;;;;;;;1.30;1.10;;;5.90;98.00;;;;;;5051721;28;20807;-64
2023/01/16 11:08:38;;;;;;;3.73;1.33;;;5.90;98.00;;;;;;5051608;28;20465;-64
2023/01/16 11:18:27;;;;;;;3.33;1.20;;;6.00;98.00;;;;;;5051520;28;20995;-64
2023/01/16 11:19:26;;;;;;;1.83;1.60;;;5.90;98.00;;;;;;5023391;28;20467;-64
2023/01/16 11:21:56;;;;;;;3.00;1.50;;;5.90;98.00;;;;;;5055488;28;20462;-64
2023/01/16 11:24:29;;;;;;;1.30;1.20;;;5.90;98.00;;;;;;5055208;28;20472;-64
2023/01/16 11:26:58;;;;;;;1.20;1.10;;;5.90;98.00;;;;;;5054658;28;20556;-63
2023/01/16 11:29:30;;;;;;;3.00;1.20;;;6.00;98.00;;;;;;5055206;28;20962;-63
2023/01/16 11:32:00;;;;;;;1.30;1.07;;;6.00;98.00;;;;;;5055196;28;20467;-64
2023/01/16 11:34:30;;;;;;;2.17;1.57;;;6.00;98.00;;;;;;5055279;28;20458;-64
2023/01/16 11:36:59;;;;;;;1.20;1.10;;;6.00;98.00;;;;;;5055462;28;20531;-64
2023/01/16 11:39:32;;;;;;;1.20;1.07;;;6.00;98.00;;;;;;5055330;28;20535;-64
2023/01/16 11:46:01;;;;;;;1.30;1.10;;;6.00;98.00;;;;;;5055180;28;20457;-64
2023/01/16 11:47:43;;;;;;;1.73;1.10;;;6.10;98.00;;;;;;5054910;28;20460;-63
2023/01/16 11:50:31;;;;;;;1.10;1.00;;;6.20;98.00;;;;;;5054972;28;20489;-63
2023/01/16 11:52:58;;;;;;;1.20;1.00;;;6.30;98.00;;;;;;5055264;28;20507;-63
2023/01/16 11:55:38;;;;;;;1.10;1.00;;;6.40;98.00;;;;;;5054845;28;20511;-64
2023/01/16 11:58:13;;;;;;;1.20;1.00;;;6.40;98.00;;;;;;5055067;28;20503;-63
2023/01/16 12:00:51;;;;;;;1.10;0.90;;;6.50;98.00;;;;;;5054989;28;20469;-63
2023/01/16 12:03:58;;;;;;;1.10;1.10;;;6.60;98.00;;;;;;5055000;28;20449;-64
2023/01/16 12:06:53;;;;;;;1.57;1.30;;;6.70;98.00;;;;;;5052530;28;20545;-63
2023/01/16 12:09:38;;;;;;;1.40;1.10;;;6.80;98.00;;;;;;5053784;28;20462;-64
2023/01/16 12:15:08;;;;;;;1.10;0.90;;;6.90;98.00;;;;;;5054722;28;20453;-64
2023/01/16 12:17:55;;;;;;;1.30;1.03;;;7.00;98.00;;;;;;5054505;28;20526;-63
2023/01/16 12:20:31;;;;;;;1.20;0.93;;;7.10;98.00;;;;;;5054632;28;20453;-63
2023/01/16 12:23:20;;;;;;;1.10;0.90;;;7.10;98.00;;;;;;5054518;28;20470;-64
2023/01/16 12:26:00;;;;;;;1.40;1.10;;;7.10;98.00;;;;;;5054099;28;20930;-64
2023/01/16 12:28:40;;;;;;;1.50;1.00;;;7.10;98.00;;;;;;5053909;28;20534;-64
2023/01/16 12:31:36;;;;;;;1.10;1.00;;;7.10;98.00;;;;;;5053700;28;20552;-63
2023/01/16 12:34:21;;;;;;;1.10;1.00;;;7.10;98.00;;;;;;5054343;28;20465;-64
2023/01/16 12:37:05;;;;;;;1.10;0.90;;;7.10;98.00;;;;;;5038088;28;20458;-64
2023/01/16 12:39:57;;;;;;;1.10;0.90;;;7.10;98.00;;;;;;5054279;28;20457;-64
2023/01/16 12:45:32;;;;;;;1.10;1.00;;;7.20;98.00;;;;;;5054342;28;20580;-64
2023/01/16 12:48:17;;;;;;;1.10;1.00;;;7.20;98.00;;;;;;5054312;28;20528;-63
2023/01/16 12:50:54;;;;;;;1.10;0.90;;;7.30;98.00;;;;;;5053987;28;20487;-64
2023/01/16 12:53:38;;;;;;;1.50;1.00;;;7.40;98.00;;;;;;5053942;28;20451;-64
2023/01/16 12:56:26;;;;;;;1.57;0.97;;;7.40;98.00;;;;;;5053837;28;20467;-64
2023/01/16 12:58:58;;;;;;;1.17;1.00;;;7.40;98.00;;;;;;5036679;28;20461;-64
2023/01/16 13:01:29;;;;;;;1.20;0.97;;;7.40;98.00;;;;;;5053721;28;20465;-65
2023/01/16 13:04:02;;;;;;;1.50;1.10;;;7.40;98.00;;;;;;5053919;28;20463;-64
2023/01/16 13:06:37;;;;;;;1.10;1.00;;;7.50;98.00;;;;;;5053706;28;20879;-64
2023/01/16 13:09:09;;;;;;;1.10;1.00;;;7.60;98.00;;;;;;5053803;28;20454;-64
2023/01/16 13:14:43;;;;;;;1.10;1.00;;;7.70;98.00;;;;;;5053543;28;20443;-64
2023/01/16 13:17:15;;;;;;;2.37;0.97;;;7.80;98.00;;;;;;5053511;28;20524;-64
2023/01/16 13:19:44;;;;;;;1.10;1.00;;;7.80;98.00;;;;;;5053255;28;20456;-64
2023/01/16 13:22:24;;;;;;;1.10;0.90;;;7.80;98.00;;;;;;5053251;28;20474;-64
2023/01/16 13:24:58;;;;;;;1.10;0.90;;;7.70;98.00;;;;;;5053091;28;20484;-64
2023/01/16 13:27:36;;;;;;;1.10;1.00;;;7.60;98.00;;;;;;5053128;28;20463;-64
2023/01/16 13:30:09;;;;;;;1.10;1.00;;;7.60;98.00;;;;;;5053199;28;20842;-64
2023/01/16 13:32:41;;;;;;;1.20;1.00;;;7.60;98.00;;;;;;5052744;28;20461;-64
2023/01/16 13:35:17;;;;;;;1.40;1.10;;;7.70;98.00;;;;;;5053411;28;20863;-64
2023/01/16 13:38:14;;;;;;;1.10;1.00;;;7.70;98.00;;;;;;5051809;28;20471;-64
2023/01/16 13:41:20;;;;;;;1.20;1.00;;;7.70;98.00;;;;;;5048443;28;20678;-64
2023/01/16 13:46:46;;;;;;;1.10;0.97;;;7.80;98.00;;;;;;5052474;28;20656;-64
2023/01/16 13:49:20;;;;;;;1.57;1.00;;;7.80;98.00;;;;;;5052198;28;20872;-64
2023/01/16 13:51:49;;;;;;;1.20;1.00;;;7.80;98.00;;;;;;5052229;28;20493;-64
2023/01/16 13:54:19;;;;;;;1.20;1.00;;;7.90;98.00;;;;;;5052269;28;20823;-64
2023/01/16 13:56:58;;;;;;;1.43;1.00;;;8.00;98.00;;;;;;5050844;28;20513;-65
2023/01/16 13:59:43;;;;;;;1.10;0.90;;;8.00;98.00;;;;;;5051954;28;20468;-65
2023/01/16 14:02:38;;;;;;;1.10;1.00;;;8.10;98.00;;;;;;5052180;28;20450;-65
2023/01/16 14:05:50;;;;;;;1.37;1.10;;;8.20;98.00;;;;;;5051960;28;20961;-64
2023/01/16 14:09:07;;;;;;;1.20;1.00;;;8.30;98.00;;;;;;5032954;28;20472;-64
2023/01/16 14:11:58;;;;;;;1.20;1.10;;;8.40;98.00;;;;;;5051947;28;20484;-64
2023/01/16 14:18:04;;;;;;;1.10;0.90;;;8.50;98.00;;;;;;5051652;28;20458;-65
2023/01/16 14:20:43;;;;;;;1.60;1.27;;;8.30;98.00;;;;;;5051636;28;20486;-64
2023/01/16 14:26:07;;;;;;;1.10;0.90;;;8.20;98.00;;;;;;5051694;28;20462;-64
2023/01/16 14:28:34;;;;;;;1.50;1.00;;;8.20;98.00;;;;;;5051595;28;21034;-65
2023/01/16 14:31:03;;;;;;;1.20;1.10;;;8.20;98.00;;;;;;5051432;28;20865;-64